createdAt,value
2019-01-19T00:03:48.782Z,15.97
2019-01-19T00:08:56.182Z,17.80
2019-01-19T00:14:16.053Z,12.27
2019-01-19T00:19:32.026Z,14.70
2019-01-19T00:24:54.664Z,13.90
2019-01-19T00:30:02.978Z,14.40
2019-01-19T00:35:20.787Z,16.57
2019-01-19T00:41:02.393Z,19.83
2019-01-19T00:46:16.046Z,16.33
2019-01-19T00:51:37.805Z,15.60
2019-01-19T00:56:53.346Z,17.13
2019-01-19T01:02:02.940Z,12.97
2019-01-19T01:07:18.776Z,14.07
2019-01-19T01:12:41.202Z,13.97
2019-01-19T01:17:49.590Z,14.80
2019-01-19T01:23:04.930Z,20.07
2019-01-19T01:28:16.022Z,17.30
2019-01-19T01:33:51.237Z,14.17
2019-01-19T01:39:11.359Z,17.17
2019-01-19T01:44:23.594Z,18.03
2019-01-19T01:49:33.833Z,14.63
2019-01-19T01:54:52.720Z,19.20
2019-01-19T02:00:05.132Z,14.10
2019-01-19T02:05:40.309Z,17.20
2019-01-19T02:11:20.621Z,17.20
2019-01-19T02:16:40.752Z,20.90
2019-01-19T02:21:53.166Z,17.93
2019-01-19T02:27:28.617Z,14.33
2019-01-19T02:32:35.287Z,18.67
2019-01-19T02:37:53.541Z,15.80
2019-01-19T02:43:14.509Z,15.10
2019-01-19T02:48:28.366Z,19.47
2019-01-19T02:53:55.919Z,16.83
2019-01-19T02:59:12.930Z,15.27
2019-01-19T03:04:47.010Z,18.50
2019-01-19T03:09:56.247Z,13.97
2019-01-19T03:15:21.927Z,16.33
2019-01-19T03:20:33.886Z,16.13
2019-01-19T03:25:45.873Z,18.70
2019-01-19T03:31:09.150Z,13.60
2019-01-19T03:36:28.237Z,15.33
2019-01-19T03:41:39.232Z,15.73
2019-01-19T03:46:49.083Z,13.83
2019-01-19T03:51:58.270Z,17.80
2019-01-19T03:57:22.899Z,20.63
2019-01-19T04:02:44.315Z,17.67
2019-01-19T04:08:08.893Z,23.50
2019-01-19T04:13:40.882Z,21.10
2019-01-19T04:18:53.410Z,25.23
2019-01-19T04:24:00.081Z,24.10
2019-01-19T04:29:03.753Z,23.93
2019-01-19T04:34:10.607Z,22.53
2019-01-19T04:39:18.994Z,26.03
2019-01-19T04:44:22.594Z,22.83
2019-01-19T04:49:27.873Z,28.77
2019-01-19T04:54:31.450Z,24.47
2019-01-19T04:59:35.343Z,24.70
2019-01-19T05:04:43.393Z,26.23
2019-01-19T05:09:47.393Z,24.70
2019-01-19T05:14:51.330Z,25.83
2019-01-19T05:19:54.942Z,29.13
2019-01-19T05:25:07.039Z,27.13
2019-01-19T05:30:13.679Z,28.63
2019-01-19T05:35:26.161Z,29.13
2019-01-19T05:40:29.782Z,31.07
2019-01-19T05:45:36.213Z,27.37
2019-01-19T05:50:41.526Z,30.70
2019-01-19T05:55:48.156Z,29.47
2019-01-19T06:00:51.762Z,27.63
2019-01-19T06:05:58.566Z,28.33
2019-01-19T06:11:02.180Z,30.40
2019-01-19T06:16:08.836Z,29.40
2019-01-19T06:21:12.817Z,28.20
2019-01-19T06:26:18.393Z,29.00
2019-01-19T06:31:23.793Z,34.50
2019-01-19T06:36:27.611Z,29.03
2019-01-19T06:41:31.290Z,29.90
2019-01-19T06:46:34.891Z,32.07
2019-01-19T06:51:38.573Z,31.30
2019-01-19T06:56:42.185Z,38.30
2019-01-19T07:01:45.872Z,33.33
2019-01-19T07:06:49.494Z,30.90
2019-01-19T07:11:53.487Z,29.83
2019-01-19T07:16:57.112Z,31.33
2019-01-19T07:22:00.798Z,32.83
2019-01-19T07:27:04.479Z,27.43
2019-01-19T07:32:08.203Z,30.40
2019-01-19T07:37:11.838Z,29.77
2019-01-19T07:42:15.437Z,28.97
2019-01-19T07:47:19.154Z,31.77
2019-01-19T07:52:22.859Z,28.87
2019-01-19T07:57:31.489Z,33.57
2019-01-19T08:02:34.413Z,30.17
2019-01-19T08:07:38.086Z,31.17
2019-01-19T08:12:42.751Z,33.93
2019-01-19T08:17:46.526Z,32.40
2019-01-19T08:22:50.126Z,31.30
2019-01-19T08:27:53.750Z,30.93
2019-01-19T08:32:57.369Z,30.97
2019-01-19T08:38:00.999Z,30.60
2019-01-19T08:43:18.525Z,31.57
2019-01-19T08:48:22.194Z,29.57
2019-01-19T08:53:25.812Z,27.60
2019-01-19T08:58:32.608Z,24.80
2019-01-19T09:03:55.554Z,23.13
2019-01-19T09:14:09.938Z,24.80
2019-01-19T09:19:19.590Z,30.00
2019-01-19T09:24:29.043Z,28.33
2019-01-19T09:29:35.339Z,29.63
2019-01-19T09:34:45.585Z,32.70
2019-01-19T09:39:59.592Z,25.83
2019-01-19T09:45:08.978Z,24.23
2019-01-19T09:50:17.120Z,23.03
2019-01-19T09:55:20.807Z,25.83
2019-01-19T10:00:35.660Z,31.57
2019-01-19T10:05:41.436Z,23.93
2019-01-19T10:11:23.729Z,35.33
2019-01-19T10:16:48.315Z,26.10
2019-01-19T10:21:54.664Z,28.83
2019-01-19T10:26:58.275Z,26.83
2019-01-19T10:32:03.489Z,23.57
2019-01-19T10:37:27.935Z,33.00
2019-01-19T10:42:35.103Z,31.40
2019-01-19T10:47:58.110Z,31.27
2019-01-19T10:53:02.424Z,34.40
2019-01-19T10:58:09.026Z,24.53
2019-01-19T11:03:16.864Z,33.27
2019-01-19T11:08:24.073Z,32.00
2019-01-19T11:13:33.346Z,36.73
2019-01-19T11:19:34.839Z,31.30
2019-01-19T11:24:40.230Z,27.30
2019-01-19T11:29:46.497Z,24.87
2019-01-19T11:34:59.170Z,32.63
2019-01-19T11:40:13.091Z,28.60
2019-01-19T11:45:21.893Z,27.90
2019-01-19T11:50:31.243Z,31.50
2019-01-19T11:55:36.475Z,27.83
2019-01-19T12:07:08.914Z,24.93
2019-01-19T12:12:14.389Z,28.57
2019-01-19T12:29:12.708Z,20.93
2019-01-19T12:34:55.088Z,20.87
2019-01-19T12:40:00.990Z,25.50
2019-01-19T12:46:02.398Z,25.03
2019-01-19T12:51:25.323Z,22.93
2019-01-19T12:56:30.642Z,24.53
2019-01-19T13:01:35.842Z,23.37
2019-01-19T13:12:02.234Z,25.60
2019-01-19T13:17:39.398Z,24.67
2019-01-19T13:23:06.465Z,21.83
2019-01-19T13:28:19.522Z,22.63
2019-01-19T13:33:45.989Z,23.13
2019-01-19T13:38:58.354Z,21.80
2019-01-19T13:44:19.849Z,22.17
2019-01-19T13:50:01.439Z,27.00
2019-01-19T13:55:17.150Z,24.20
2019-01-19T14:00:26.441Z,27.67
2019-01-19T14:06:00.302Z,27.90
2019-01-19T14:11:23.619Z,25.93
2019-01-19T14:16:36.290Z,27.37
2019-01-19T14:22:00.823Z,23.03
2019-01-19T14:27:24.119Z,26.23
2019-01-19T14:32:45.774Z,20.37
2019-01-19T14:38:05.058Z,22.40
2019-01-19T14:43:35.711Z,25.47
2019-01-19T14:49:09.590Z,24.63
2019-01-19T14:54:32.727Z,25.67
2019-01-19T14:59:45.408Z,23.43
2019-01-19T15:04:54.697Z,23.67
2019-01-19T15:10:04.022Z,22.77
2019-01-19T15:15:31.362Z,31.33
2019-01-19T15:20:54.006Z,26.97
2019-01-19T15:26:17.036Z,22.80
2019-01-19T15:31:41.886Z,27.63
2019-01-19T15:37:07.306Z,23.00
2019-01-19T15:42:33.271Z,22.20
2019-01-19T15:47:51.755Z,22.27
2019-01-19T15:53:10.647Z,21.97
2019-01-19T15:58:26.121Z,28.63
2019-01-19T16:03:45.114Z,22.43
2019-01-19T16:09:18.331Z,21.33
2019-01-19T16:14:49.385Z,30.47
2019-01-19T16:19:58.625Z,37.93
2019-01-19T16:25:05.294Z,27.90
2019-01-19T16:30:40.790Z,25.67
2019-01-19T16:35:53.437Z,29.80
2019-01-19T16:41:06.238Z,37.50
2019-01-19T16:46:21.850Z,31.93
2019-01-19T16:51:36.834Z,25.43
2019-01-19T16:56:49.523Z,31.27
2019-01-19T17:02:05.048Z,29.37
2019-01-19T17:07:29.566Z,28.47
2019-01-19T17:12:41.239Z,32.80
2019-01-19T17:18:20.994Z,32.60
2019-01-19T17:23:42.898Z,41.80
2019-01-19T17:28:58.710Z,28.97
2019-01-19T17:34:17.610Z,27.77
2019-01-19T17:39:57.685Z,48.07
2019-01-19T17:45:10.061Z,35.00
2019-01-19T17:50:29.851Z,28.90
2019-01-19T17:55:45.397Z,27.90
2019-01-19T18:00:52.085Z,34.23
2019-01-19T18:05:59.868Z,37.20
2019-01-19T18:11:23.174Z,41.07
2019-01-19T18:17:00.787Z,35.97
2019-01-19T18:22:41.313Z,42.87
2019-01-19T18:28:11.246Z,42.00
2019-01-19T18:33:31.363Z,52.23
2019-01-19T18:38:46.956Z,43.70
2019-01-19T18:43:59.348Z,95.87
2019-01-19T18:49:08.806Z,37.77
2019-01-19T18:54:36.571Z,39.50
2019-01-19T18:59:46.008Z,42.57
2019-01-19T19:05:21.421Z,38.23
2019-01-19T19:10:43.402Z,36.23
2019-01-19T19:15:54.348Z,53.57
2019-01-19T19:21:20.802Z,38.13
2019-01-19T19:26:36.249Z,48.53
2019-01-19T19:31:55.025Z,42.27
2019-01-19T19:37:09.092Z,33.47
2019-01-19T19:42:24.632Z,33.43
2019-01-19T19:48:03.261Z,34.10
2019-01-19T19:53:07.890Z,38.67
2019-01-19T19:58:11.551Z,38.40
2019-01-19T20:03:16.797Z,35.67
2019-01-19T20:08:20.749Z,42.23
2019-01-19T20:13:24.553Z,38.30
2019-01-19T20:18:28.311Z,41.37
2019-01-19T20:23:32.016Z,37.50
2019-01-19T20:28:35.679Z,37.23
2019-01-19T20:33:40.031Z,38.33
2019-01-19T20:38:43.741Z,40.93
2019-01-19T20:43:50.146Z,39.83
2019-01-19T20:48:54.634Z,40.97
2019-01-19T20:54:00.881Z,34.33
2019-01-19T20:59:04.950Z,41.23
2019-01-19T21:04:15.602Z,42.90
2019-01-19T21:09:13.866Z,41.40
2019-01-19T21:14:17.510Z,41.90
2019-01-19T21:19:22.227Z,43.77
2019-01-19T21:24:25.897Z,38.80
2019-01-19T21:29:29.536Z,38.77
2019-01-19T21:34:33.556Z,38.20
2019-01-19T21:39:37.308Z,40.70
2019-01-19T21:44:40.893Z,37.47
2019-01-19T21:49:45.046Z,35.20
2019-01-19T21:54:48.671Z,39.50
2019-01-19T21:59:52.351Z,41.70
2019-01-19T22:04:57.591Z,55.67
2019-01-19T22:10:01.316Z,39.90
2019-01-19T22:15:08.350Z,38.57
2019-01-19T22:20:14.510Z,47.87
2019-01-19T22:25:18.197Z,46.13
2019-01-19T22:30:24.042Z,45.10
2019-01-19T22:35:28.224Z,44.93
2019-01-19T22:40:31.896Z,45.03
2019-01-19T22:45:35.506Z,48.47
2019-01-19T22:50:39.121Z,47.27
2019-01-19T22:55:42.758Z,38.27
2019-01-19T23:00:59.553Z,43.37
2019-01-19T23:06:03.247Z,42.27
2019-01-19T23:11:06.930Z,45.27
2019-01-19T23:16:10.629Z,39.50
2019-01-19T23:21:14.381Z,42.27
2019-01-19T23:26:18.362Z,40.60
2019-01-19T23:31:21.987Z,38.33
2019-01-19T23:36:26.006Z,40.27
2019-01-19T23:41:29.622Z,41.10
2019-01-19T23:46:33.222Z,37.80
2019-01-19T23:51:36.917Z,46.50
2019-01-19T23:56:40.542Z,40.70
